Gil Vicente — CSKG — position and weather

sailwx.info

Track history (hours):
 
Tides and Currents Weather Stations Pressure Air Temp Water Temp Dewpoint Dewpoint Depression Visibility Wind Speed Wind Dir Waves Ship Positions

Gil Vicente

Last reported at 2014-Sep-30 09:12 UTC. Time now 2014-Sep-30 10:10 UTC.
Position N 38°39' W 009°05'.

Length 49 m.

Type: Passenger vessel. MMSI: 263701390.

Date/timePositionNaut miles runAvg speedWind from/ knotsBaromVisibWave heightAir tempDewpointWater temp
2014-Sep-30 09:12N 38°39' W 009°05'4 6.3
2014-Sep-30 08:33N 38°42' W 009°08'0 0.1
2014-Sep-30 07:34N 38°42' W 009°08'2 2.3
2014-Sep-30 06:33N 38°40' W 009°07'2 0.2
2014-Sep-29 20:33N 38°39' W 009°05'0 0.0
2014-Sep-29 19:33N 38°39' W 009°05'4 3.8
2014-Sep-29 18:34N 38°42' W 009°08'0 0.3
2014-Sep-29 17:33N 38°42' W 009°08'3 2.5
2014-Sep-29 16:33N 38°40' W 009°07'1 1.2
2014-Sep-29 15:34N 38°39' W 009°06'0 0.5
2014-Sep-29 14:34N 38°40' W 009°06'1 0.3
2014-Sep-29 10:19N 38°39' W 009°05'0 0.0
2014-Sep-29 09:34N 38°39' W 009°05'2 1.8
2014-Sep-29 08:34N 38°40' W 009°07'0 0.4
2014-Sep-29 07:34N 38°40' W 009°07'2 2.2
2014-Sep-29 06:33N 38°39' W 009°05'0 0.0
2014-Sep-29 05:33N 38°39' W 009°05'0 0.0
2014-Sep-29 04:33N 38°39' W 009°05'3 0.4
2014-Sep-28 20:34N 38°41' W 009°08'3 3.0
2014-Sep-28 19:33N 38°39' W 009°05'2 1.8
2014-Sep-28 18:33N 38°40' W 009°07'0 0.2
2014-Sep-28 17:34N 38°40' W 009°06'0 0.1
2014-Sep-28 16:34N 38°40' W 009°06'0 0.2
2014-Sep-28 15:34N 38°40' W 009°06'0 0.4
2014-Sep-28 14:33N 38°40' W 009°07'0 0.1
2014-Sep-28 13:33N 38°40' W 009°06'0 0.1
2014-Sep-28 12:34N 38°40' W 009°06'2 0.3
2014-Sep-28 06:34N 38°39' W 009°05'0 0.5
2014-Sep-28 05:33N 38°39' W 009°05'0 0.5
2014-Sep-28 04:33N 38°39' W 009°05'0 0.0
2014-Sep-26 21:33N 38°39' W 009°05'0 0.0
2014-Sep-26 20:33N 38°39' W 009°05'0 0.1
2014-Sep-26 19:33N 38°39' W 009°05'4 3.8
2014-Sep-26 18:34N 38°42' W 009°08'2 1.9
2014-Sep-26 17:34N 38°40' W 009°07'2 2.3
2014-Sep-26 16:34N 38°39' W 009°05'0 0.0
2014-Sep-26 15:34N 38°39' W 009°05'0 0.1
2014-Sep-26 14:34N 38°39' W 009°05'0 0.0
2014-Sep-26 10:26N 38°39' W 009°05'1 1.4
2014-Sep-26 09:34N 38°40' W 009°06'0 0.4
2014-Sep-26 08:33N 38°39' W 009°06'3 3.0
2014-Sep-26 07:34N 38°42' W 009°08'0 0.3
2014-Sep-26 06:33N 38°42' W 009°08'4 0.1
2014-Sep-24 20:10N 38°39' W 009°05'3 5.5
2014-Sep-24 19:33N 38°41' W 009°08'2 2.4
2014-Sep-24 18:34N 38°40' W 009°06'3 2.9
2014-Sep-24 17:34N 38°42' W 009°08'0 0.4
2014-Sep-24 16:33N 38°42' W 009°08'1 0.9
2014-Sep-24 15:34N 38°41' W 009°08'3 3.3
2014-Sep-24 14:34N 38°39' W 009°05'2 1.6
2014-Sep-24 13:33N 38°40' W 009°06'0 0.3
2014-Sep-24 12:34N 38°40' W 009°06'1 1.2
2014-Sep-24 11:34N 38°39' W 009°05'0 0.0
2014-Sep-24 10:34N 38°39' W 009°05'3 2.6
2014-Sep-24 09:34N 38°40' W 009°08'3 2.7
2014-Sep-24 08:33N 38°39' W 009°05'1 0.8
2014-Sep-24 07:34N 38°39' W 009°06'3 3.4
2014-Sep-24 06:33N 38°42' W 009°08'0 0.2
2014-Sep-24 05:34N 38°42' W 009°08'0 0.1
2014-Sep-24 04:34N 38°42' W 009°08'4 4.1
2014-Sep-24 03:33N 38°39' W 009°05'0 0.0
2014-Sep-24 02:33N 38°39' W 009°05'0 0.0
2014-Sep-24 01:34N 38°39' W 009°05'1 0.5
2014-Sep-24 00:33N 38°39' W 009°05'0 0.0
2014-Sep-23 23:34N 38°39' W 009°05'0 0.3
2014-Sep-23 22:34N 38°39' W 009°05'1 1.5
2014-Sep-23 21:33N 38°40' W 009°07'0 0.2
2014-Sep-23 20:34N 38°40' W 009°06'1 1.4
2014-Sep-23 19:33N 38°39' W 009°05'0 0.0
2014-Sep-23 18:33N 38°39' W 009°05'1 1.1
2014-Sep-23 17:34N 38°40' W 009°06'3 2.9
2014-Sep-23 16:34N 38°42' W 009°08'4 3.7
2014-Sep-23 15:33N 38°39' W 009°05'0 0.0
2014-Sep-23 12:32N 38°39' W 009°05'1 1.2
2014-Sep-23 11:33N 38°40' W 009°06'0 0.1
2014-Sep-23 10:33N 38°40' W 009°06'1 1.2
2014-Sep-23 09:33N 38°39' W 009°05'0 0.0
2014-Sep-23 08:33N 38°39' W 009°05'0 0.0
2014-Sep-23 07:34N 38°39' W 009°05'1 0.9
2014-Sep-23 06:33N 38°39' W 009°06'1 0.8
2014-Sep-23 05:33N 38°39' W 009°05'4 0.4
2014-Sep-22 19:34N 38°42' W 009°08'0 0.2
2014-Sep-22 18:33N 38°42' W 009°08'1 0.9
2014-Sep-22 17:34N 38°41' W 009°08'3 3.1
2014-Sep-22 16:34N 38°39' W 009°05'4 3.7
2014-Sep-22 15:34N 38°42' W 009°08'2 1.6
2014-Sep-22 14:33N 38°41' W 009°08'0 0.3
2014-Sep-22 13:34N 38°41' W 009°08'0 0.1
2014-Sep-22 12:33N 38°41' W 009°08'0 0.3
2014-Sep-22 11:33N 38°41' W 009°08'0 0.0
2014-Sep-22 10:33N 38°41' W 009°08'3 2.7
2014-Sep-22 09:33N 38°39' W 009°05'1 1.2
2014-Sep-22 08:34N 38°40' W 009°06'3 3.0
2014-Sep-22 07:33N 38°42' W 009°08'1 1.0
2014-Sep-22 06:33N 38°41' W 009°08'3 3.2
2014-Sep-22 05:34N 38°39' W 009°05'  
Track history (hours):
 
Tides and Currents Weather Stations Pressure Air Temp Water Temp Dewpoint Dewpoint Depression Visibility Wind Speed Wind Dir Waves Ship Positions

Gil Vicente

Last reported at 2014-Sep-30 09:12 UTC. Time now 2014-Sep-30 10:10 UTC.
Position N 38°39' W 009°05'.

Length 49 m.

Type: Passenger vessel. MMSI: 263701390.

Date/timePositionNaut miles runAvg speedWind from/ knotsBaromVisibWave heightAir tempDewpointWater temp
2014-Sep-30 09:12N 38°39' W 009°05'4 6.3
2014-Sep-30 08:33N 38°42' W 009°08'0 0.1
2014-Sep-30 07:34N 38°42' W 009°08'2 2.3
2014-Sep-30 06:33N 38°40' W 009°07'2 0.2
2014-Sep-29 20:33N 38°39' W 009°05'0 0.0
2014-Sep-29 19:33N 38°39' W 009°05'4 3.8
2014-Sep-29 18:34N 38°42' W 009°08'0 0.3
2014-Sep-29 17:33N 38°42' W 009°08'3 2.5
2014-Sep-29 16:33N 38°40' W 009°07'1 1.2
2014-Sep-29 15:34N 38°39' W 009°06'0 0.5
2014-Sep-29 14:34N 38°40' W 009°06'1 0.3
2014-Sep-29 10:19N 38°39' W 009°05'0 0.0
2014-Sep-29 09:34N 38°39' W 009°05'2 1.8
2014-Sep-29 08:34N 38°40' W 009°07'0 0.4
2014-Sep-29 07:34N 38°40' W 009°07'2 2.2
2014-Sep-29 06:33N 38°39' W 009°05'0 0.0
2014-Sep-29 05:33N 38°39' W 009°05'0 0.0
2014-Sep-29 04:33N 38°39' W 009°05'3 0.4
2014-Sep-28 20:34N 38°41' W 009°08'3 3.0
2014-Sep-28 19:33N 38°39' W 009°05'2 1.8
2014-Sep-28 18:33N 38°40' W 009°07'0 0.2
2014-Sep-28 17:34N 38°40' W 009°06'0 0.1
2014-Sep-28 16:34N 38°40' W 009°06'0 0.2
2014-Sep-28 15:34N 38°40' W 009°06'0 0.4
2014-Sep-28 14:33N 38°40' W 009°07'0 0.1
2014-Sep-28 13:33N 38°40' W 009°06'0 0.1
2014-Sep-28 12:34N 38°40' W 009°06'2 0.3
2014-Sep-28 06:34N 38°39' W 009°05'0 0.5
2014-Sep-28 05:33N 38°39' W 009°05'0 0.5
2014-Sep-28 04:33N 38°39' W 009°05'0 0.0
2014-Sep-26 21:33N 38°39' W 009°05'0 0.0
2014-Sep-26 20:33N 38°39' W 009°05'0 0.1
2014-Sep-26 19:33N 38°39' W 009°05'4 3.8
2014-Sep-26 18:34N 38°42' W 009°08'2 1.9
2014-Sep-26 17:34N 38°40' W 009°07'2 2.3
2014-Sep-26 16:34N 38°39' W 009°05'0 0.0
2014-Sep-26 15:34N 38°39' W 009°05'0 0.1
2014-Sep-26 14:34N 38°39' W 009°05'0 0.0
2014-Sep-26 10:26N 38°39' W 009°05'1 1.4
2014-Sep-26 09:34N 38°40' W 009°06'0 0.4
2014-Sep-26 08:33N 38°39' W 009°06'3 3.0
2014-Sep-26 07:34N 38°42' W 009°08'0 0.3
2014-Sep-26 06:33N 38°42' W 009°08'4 0.1
2014-Sep-24 20:10N 38°39' W 009°05'3 5.5
2014-Sep-24 19:33N 38°41' W 009°08'2 2.4
2014-Sep-24 18:34N 38°40' W 009°06'3 2.9
2014-Sep-24 17:34N 38°42' W 009°08'0 0.4
2014-Sep-24 16:33N 38°42' W 009°08'1 0.9
2014-Sep-24 15:34N 38°41' W 009°08'3 3.3
2014-Sep-24 14:34N 38°39' W 009°05'2 1.6
2014-Sep-24 13:33N 38°40' W 009°06'0 0.3
2014-Sep-24 12:34N 38°40' W 009°06'1 1.2
2014-Sep-24 11:34N 38°39' W 009°05'0 0.0
2014-Sep-24 10:34N 38°39' W 009°05'3 2.6
2014-Sep-24 09:34N 38°40' W 009°08'3 2.7
2014-Sep-24 08:33N 38°39' W 009°05'1 0.8
2014-Sep-24 07:34N 38°39' W 009°06'3 3.4
2014-Sep-24 06:33N 38°42' W 009°08'0 0.2
2014-Sep-24 05:34N 38°42' W 009°08'0 0.1
2014-Sep-24 04:34N 38°42' W 009°08'4 4.1
2014-Sep-24 03:33N 38°39' W 009°05'0 0.0
2014-Sep-24 02:33N 38°39' W 009°05'0 0.0
2014-Sep-24 01:34N 38°39' W 009°05'1 0.5
2014-Sep-24 00:33N 38°39' W 009°05'0 0.0
2014-Sep-23 23:34N 38°39' W 009°05'0 0.3
2014-Sep-23 22:34N 38°39' W 009°05'1 1.5
2014-Sep-23 21:33N 38°40' W 009°07'0 0.2
2014-Sep-23 20:34N 38°40' W 009°06'1 1.4
2014-Sep-23 19:33N 38°39' W 009°05'0 0.0
2014-Sep-23 18:33N 38°39' W 009°05'1 1.1
2014-Sep-23 17:34N 38°40' W 009°06'3 2.9
2014-Sep-23 16:34N 38°42' W 009°08'4 3.7
2014-Sep-23 15:33N 38°39' W 009°05'0 0.0
2014-Sep-23 12:32N 38°39' W 009°05'1 1.2
2014-Sep-23 11:33N 38°40' W 009°06'0 0.1
2014-Sep-23 10:33N 38°40' W 009°06'1 1.2
2014-Sep-23 09:33N 38°39' W 009°05'0 0.0
2014-Sep-23 08:33N 38°39' W 009°05'0 0.0
2014-Sep-23 07:34N 38°39' W 009°05'1 0.9
2014-Sep-23 06:33N 38°39' W 009°06'1 0.8
2014-Sep-23 05:33N 38°39' W 009°05'4 0.4
2014-Sep-22 19:34N 38°42' W 009°08'0 0.2
2014-Sep-22 18:33N 38°42' W 009°08'1 0.9
2014-Sep-22 17:34N 38°41' W 009°08'3 3.1
2014-Sep-22 16:34N 38°39' W 009°05'4 3.7
2014-Sep-22 15:34N 38°42' W 009°08'2 1.6
2014-Sep-22 14:33N 38°41' W 009°08'0 0.3
2014-Sep-22 13:34N 38°41' W 009°08'0 0.1
2014-Sep-22 12:33N 38°41' W 009°08'0 0.3
2014-Sep-22 11:33N 38°41' W 009°08'0 0.0
2014-Sep-22 10:33N 38°41' W 009°08'3 2.7
2014-Sep-22 09:33N 38°39' W 009°05'1 1.2
2014-Sep-22 08:34N 38°40' W 009°06'3 3.0
2014-Sep-22 07:33N 38°42' W 009°08'1 1.0
2014-Sep-22 06:33N 38°41' W 009°08'3 3.2
2014-Sep-22 05:34N 38°39' W 009°05'  

Dump ship's entire track history